Time;durP1;ratioP1;P1;durP2;ratioP2;P2;SDS_P1;SDS_P2;PMS_P1;PMS_P2;Temp;Humidity;BMP_temperature;BMP_pressure;BME280_temperature;BME280_humidity;BME280_pressure;Samples;Min_cycle;Max_cycle;Signal;HPM_P1;HPM_P2
2022/12/06 00:01:40;;;;;;;4.20;1.47;;;28.20;99.90;;;;;;4934466;29;20276;-71
2022/12/06 00:04:15;;;;;;;5.00;1.70;;;28.00;99.90;;;;;;4934693;29;20184;-72
2022/12/06 00:06:50;;;;;;;3.43;1.53;;;28.40;99.90;;;;;;4917633;29;20187;-72
2022/12/06 00:09:41;;;;;;;4.50;1.97;;;28.20;99.90;;;;;;4934297;29;20184;-70
2022/12/06 00:12:09;;;;;;;3.83;1.80;;;27.20;99.90;;;;;;4918680;29;20690;-69
2022/12/06 00:14:37;;;;;;;4.67;1.90;;;26.20;99.90;;;;;;4921715;29;20271;-69
2022/12/06 00:17:04;;;;;;;6.27;2.00;;;25.70;99.90;;;;;;4938436;29;20267;-69
2022/12/06 00:19:31;;;;;;;5.47;2.00;;;25.40;99.90;;;;;;4937981;29;20653;-70
2022/12/06 00:21:59;;;;;;;4.77;1.60;;;25.90;99.90;;;;;;4936887;29;20189;-69
2022/12/06 00:24:26;;;;;;;2.40;1.23;;;26.30;99.90;;;;;;4938020;29;20184;-71
2022/12/06 00:26:54;;;;;;;4.73;1.70;;;26.20;99.90;;;;;;4939820;29;20207;-69
2022/12/06 00:36:09;;;;;;;2.93;1.63;;;28.90;99.90;;;;;;4929871;29;20224;-70
2022/12/06 00:38:37;;;;;;;8.20;1.73;;;28.40;99.90;;;;;;4936814;29;20258;-70
2022/12/06 00:41:12;;;;;;;2.90;1.70;;;27.90;99.90;;;;;;4937238;29;20271;-70
2022/12/06 00:43:40;;;;;;;3.30;1.60;;;28.40;99.90;;;;;;4933220;29;20215;-70
2022/12/06 00:46:11;;;;;;;2.23;1.23;;;29.00;99.90;;;;;;4946138;29;20188;-69
2022/12/06 00:48:38;;;;;;;4.20;1.60;;;29.50;99.90;;;;;;4956930;29;20216;-71
2022/12/06 00:51:06;;;;;;;2.77;1.57;;;29.00;99.90;;;;;;4941151;29;20200;-71
2022/12/06 00:53:34;;;;;;;5.97;1.73;;;27.60;99.90;;;;;;4917637;29;20217;-69
2022/12/06 00:56:01;;;;;;;5.90;1.73;;;27.00;99.90;;;;;;4917440;29;20715;-69
2022/12/06 00:58:29;;;;;;;3.47;2.00;;;27.50;99.90;;;;;;4918437;29;20229;-69
2022/12/06 01:01:05;;;;;;;6.60;1.60;;;28.20;99.90;;;;;;4918575;29;20320;-70
2022/12/06 01:03:33;;;;;;;4.47;1.90;;;28.30;99.90;;;;;;4918628;29;20220;-69
2022/12/06 01:06:05;;;;;;;3.67;1.60;;;28.70;99.90;;;;;;4918520;29;20170;-70
2022/12/06 01:08:33;;;;;;;3.87;2.03;;;28.80;99.90;;;;;;4918376;29;20186;-70
2022/12/06 01:11:02;;;;;;;3.83;1.70;;;29.00;99.90;;;;;;4919044;29;20237;-70
2022/12/06 01:13:30;;;;;;;6.20;1.73;;;29.40;99.90;;;;;;4934830;29;20256;-70
2022/12/06 01:16:04;;;;;;;7.33;1.93;;;29.80;99.90;;;;;;4937441;29;20184;-69
2022/12/06 01:18:31;;;;;;;5.90;1.80;;;29.40;99.90;;;;;;4936949;29;20598;-69
2022/12/06 01:21:04;;;;;;;5.33;1.40;;;29.70;99.90;;;;;;4936803;29;20184;-69
2022/12/06 01:23:32;;;;;;;5.30;1.30;;;30.20;99.90;;;;;;4930640;29;20185;-69
2022/12/06 01:26:00;;;;;;;4.83;1.70;;;29.50;99.90;;;;;;4936960;29;20185;-70
2022/12/06 01:28:28;;;;;;;4.63;1.57;;;28.30;99.90;;;;;;4937100;29;20665;-69
2022/12/06 01:30:56;;;;;;;4.13;1.40;;;28.40;99.90;;;;;;4937263;29;20650;-69
2022/12/06 01:33:24;;;;;;;5.27;1.50;;;27.60;99.90;;;;;;4936375;29;20217;-71
2022/12/06 01:35:52;;;;;;;4.70;1.40;;;27.20;99.90;;;;;;4936963;29;20208;-71
2022/12/06 01:38:20;;;;;;;7.70;2.30;;;26.80;99.90;;;;;;4936892;29;20274;-71
2022/12/06 01:40:49;;;;;;;4.10;1.40;;;27.80;99.90;;;;;;4935091;29;20185;-69
2022/12/06 01:43:35;;;;;;;2.93;1.30;;;28.70;99.90;;;;;;4936562;29;20230;-69
2022/12/06 01:46:10;;;;;;;8.10;2.00;;;29.20;99.90;;;;;;4936788;29;20208;-70
2022/12/06 01:48:38;;;;;;;4.47;1.73;;;29.20;99.90;;;;;;4936554;29;20291;-69
2022/12/06 01:51:10;;;;;;;3.83;1.50;;;29.30;99.90;;;;;;4939134;29;20196;-70
2022/12/06 01:53:40;;;;;;;2.67;1.20;;;28.40;99.90;;;;;;4943886;29;20224;-69
2022/12/06 01:56:09;;;;;;;5.00;1.80;;;27.70;99.90;;;;;;4938027;29;20200;-69
2022/12/06 01:58:39;;;;;;;3.93;1.83;;;27.00;99.90;;;;;;4934942;29;20691;-70
2022/12/06 02:01:09;;;;;;;2.87;1.50;;;26.60;99.90;;;;;;4936962;29;20587;-71
2022/12/06 02:03:37;;;;;;;4.80;1.37;;;26.40;99.90;;;;;;4935628;29;20195;-70
2022/12/06 02:06:07;;;;;;;4.30;1.40;;;27.10;99.90;;;;;;4935798;29;20197;-70
2022/12/06 02:08:39;;;;;;;3.67;1.53;;;28.00;99.90;;;;;;4936447;29;20188;-69
2022/12/06 02:11:08;;;;;;;4.03;1.30;;;27.80;99.90;;;;;;4936106;29;20181;-69
2022/12/06 02:13:37;;;;;;;3.53;1.80;;;27.30;99.90;;;;;;4935931;29;20317;-70
2022/12/06 02:16:26;;;;;;;4.50;1.67;;;27.50;99.90;;;;;;4936260;29;20184;-69
2022/12/06 02:18:58;;;;;;;3.13;1.17;;;27.80;99.90;;;;;;4936246;29;20231;-70
2022/12/06 02:21:29;;;;;;;5.80;1.57;;;27.30;99.90;;;;;;4918614;29;20192;-69
2022/12/06 02:24:23;;;;;;;3.03;1.40;;;26.70;99.90;;;;;;4933204;29;20193;-69
2022/12/06 02:27:22;;;;;;;2.17;1.20;;;26.40;99.90;;;;;;4935540;29;20670;-67
2022/12/06 02:30:11;;;;;;;3.80;1.30;;;26.30;99.90;;;;;;4936313;29;20181;-69
2022/12/06 02:32:47;;;;;;;4.43;1.40;;;26.20;99.90;;;;;;4934712;29;20364;-67
2022/12/06 02:35:15;;;;;;;7.90;1.53;;;26.20;99.90;;;;;;4935561;29;20598;-68
2022/12/06 02:37:54;;;;;;;5.63;1.70;;;26.70;99.90;;;;;;4935996;29;20191;-68
2022/12/06 02:40:31;;;;;;;4.97;1.40;;;27.30;99.90;;;;;;4935021;29;20177;-68
2022/12/06 02:43:04;;;;;;;2.53;1.20;;;27.30;99.90;;;;;;4935744;29;20190;-68
2022/12/06 02:45:42;;;;;;;10.03;1.50;;;26.60;99.90;;;;;;4935813;29;20177;-68
2022/12/06 02:48:12;;;;;;;4.73;1.50;;;26.40;99.90;;;;;;4935214;29;20287;-69
2022/12/06 02:50:44;;;;;;;4.07;1.57;;;26.10;99.90;;;;;;4935192;29;20267;-69
2022/12/06 02:53:18;;;;;;;3.57;1.33;;;26.60;99.90;;;;;;4933907;29;20550;-69
2022/12/06 02:55:46;;;;;;;4.83;1.27;;;26.90;99.90;;;;;;4935271;29;20180;-69
2022/12/06 02:58:14;;;;;;;4.37;1.40;;;27.20;99.90;;;;;;4935732;29;20698;-69
2022/12/06 03:00:43;;;;;;;2.93;1.30;;;27.20;99.90;;;;;;4935429;29;20267;-69
2022/12/06 03:03:24;;;;;;;7.97;1.50;;;26.70;99.90;;;;;;4935209;29;20275;-69
2022/12/06 03:06:01;;;;;;;8.37;2.07;;;26.50;99.90;;;;;;4935391;29;20180;-69
2022/12/06 03:08:37;;;;;;;9.07;1.63;;;26.80;99.90;;;;;;4935187;29;20198;-68
2022/12/06 03:11:05;;;;;;;6.53;1.70;;;27.20;99.90;;;;;;4934740;29;20188;-68
2022/12/06 03:13:57;;;;;;;6.67;1.40;;;27.30;99.90;;;;;;4934884;29;20220;-69
2022/12/06 03:16:50;;;;;;;6.70;1.20;;;26.70;99.90;;;;;;4943941;29;20195;-69
2022/12/06 03:19:21;;;;;;;5.43;1.27;;;26.50;99.90;;;;;;4934547;29;20184;-69
2022/12/06 03:21:58;;;;;;;3.30;1.00;;;26.90;99.90;;;;;;4935088;29;20588;-69
2022/12/06 03:24:30;;;;;;;5.80;1.50;;;27.20;99.90;;;;;;4933315;29;20211;-71
2022/12/06 03:27:00;;;;;;;5.50;1.30;;;27.20;99.90;;;;;;4934475;29;20282;-70
2022/12/06 03:29:33;;;;;;;4.53;1.10;;;27.60;99.90;;;;;;4934847;29;20678;-70
2022/12/06 03:32:04;;;;;;;3.13;0.80;;;27.00;99.90;;;;;;4933505;29;20196;-70
2022/12/06 03:34:41;;;;;;;1.10;0.73;;;27.20;99.90;;;;;;4920945;29;20226;-70
2022/12/06 03:37:14;;;;;;;6.57;1.17;;;27.70;99.90;;;;;;4934535;29;20286;-69
2022/12/06 03:39:41;;;;;;;4.10;1.03;;;27.40;99.90;;;;;;4934340;29;20674;-70
2022/12/06 03:42:10;;;;;;;2.83;1.00;;;27.20;99.90;;;;;;4934333;29;20188;-68
2022/12/06 03:44:38;;;;;;;4.57;1.40;;;27.50;99.90;;;;;;4933873;29;20192;-67
2022/12/06 03:47:16;;;;;;;2.53;0.80;;;27.60;99.90;;;;;;4933732;29;20219;-68
2022/12/06 03:50:00;;;;;;;2.13;0.80;;;27.50;99.90;;;;;;4934686;29;20315;-68
2022/12/06 03:52:29;;;;;;;2.80;0.90;;;27.50;99.90;;;;;;4934724;29;20303;-68
2022/12/06 03:54:57;;;;;;;4.47;1.20;;;27.90;99.90;;;;;;4932366;29;20219;-69
2022/12/06 03:57:25;;;;;;;4.33;1.13;;;28.00;99.90;;;;;;4934715;29;20568;-68
2022/12/06 03:59:53;;;;;;;6.30;1.07;;;27.90;99.90;;;;;;4934649;29;20223;-68
2022/12/06 04:02:21;;;;;;;2.97;1.10;;;27.70;99.90;;;;;;4934042;29;20202;-68
2022/12/06 04:04:48;;;;;;;3.43;0.70;;;28.00;99.90;;;;;;4915676;29;20281;-68
2022/12/06 04:07:20;;;;;;;2.73;0.90;;;28.00;99.90;;;;;;4915729;29;20181;-68
2022/12/06 04:09:51;;;;;;;3.90;0.90;;;27.90;99.90;;;;;;4915218;29;20282;-68
2022/12/06 04:15:07;;;;;;;3.13;0.80;;;27.90;99.90;;;;;;4934634;29;20587;-69
2022/12/06 04:20:27;;;;;;;3.23;0.80;;;27.60;99.90;;;;;;4934742;29;20248;-69
2022/12/06 04:23:04;;;;;;;3.40;0.80;;;27.50;99.90;;;;;;4932959;29;20282;-68
2022/12/06 04:25:34;;;;;;;3.03;0.83;;;27.50;99.90;;;;;;4933268;29;20694;-68
2022/12/06 04:39:06;;;;;;;5.63;1.03;;;27.70;99.90;;;;;;4933945;29;20275;-67
2022/12/06 04:44:20;;;;;;;2.30;1.00;;;27.40;99.90;;;;;;4934526;29;20618;-69
2022/12/06 04:46:48;;;;;;;3.63;0.80;;;27.40;99.90;;;;;;4933770;29;20220;-69
2022/12/06 04:49:15;;;;;;;4.07;0.63;;;27.80;99.90;;;;;;4934130;29;20228;-69
2022/12/06 04:51:43;;;;;;;3.37;0.87;;;27.80;99.90;;;;;;4933685;29;20217;-69
2022/12/06 04:54:11;;;;;;;2.67;0.83;;;27.40;99.90;;;;;;4933417;29;20224;-69
2022/12/06 04:56:39;;;;;;;3.93;0.90;;;27.00;99.90;;;;;;4935729;29;20224;-69
2022/12/06 04:59:07;;;;;;;1.93;1.00;;;26.70;99.90;;;;;;4937555;29;20682;-71
2022/12/06 05:01:34;;;;;;;3.70;0.70;;;26.80;99.90;;;;;;4937228;29;20181;-68
2022/12/06 05:04:02;;;;;;;2.70;1.00;;;27.30;99.90;;;;;;4937713;29;20217;-68
2022/12/06 05:06:30;;;;;;;4.40;0.63;;;27.20;99.90;;;;;;4936903;29;20193;-69
2022/12/06 05:08:58;;;;;;;1.50;0.50;;;27.30;99.90;;;;;;4936820;29;20185;-69
2022/12/06 05:11:26;;;;;;;2.50;0.60;;;27.40;99.90;;;;;;4936408;29;20181;-68
2022/12/06 05:13:54;;;;;;;1.87;0.50;;;27.30;99.90;;;;;;4935620;29;20223;-67
2022/12/06 05:16:22;;;;;;;4.17;0.43;;;27.00;99.90;;;;;;4935816;29;20184;-68
2022/12/06 05:18:49;;;;;;;3.40;0.63;;;26.80;99.90;;;;;;4935167;29;20600;-67
2022/12/06 05:21:21;;;;;;;1.40;0.47;;;26.90;99.90;;;;;;4936361;29;20209;-68
2022/12/06 05:23:51;;;;;;;4.80;0.77;;;27.10;99.90;;;;;;4935488;29;20184;-68
2022/12/06 05:26:21;;;;;;;2.93;0.67;;;26.80;99.90;;;;;;4941307;29;20188;-69
2022/12/06 05:28:49;;;;;;;3.80;0.60;;;26.70;99.90;;;;;;4940313;29;20220;-69
2022/12/06 05:31:18;;;;;;;1.77;0.50;;;26.40;99.90;;;;;;4935750;29;20268;-68
2022/12/06 05:33:46;;;;;;;4.33;0.80;;;26.40;99.90;;;;;;4936376;29;20263;-69
2022/12/06 05:36:23;;;;;;;3.50;0.60;;;26.70;99.90;;;;;;4936464;29;20549;-69
2022/12/06 05:38:52;;;;;;;2.73;0.63;;;26.60;99.90;;;;;;4936637;29;20271;-70
2022/12/06 05:41:21;;;;;;;2.80;0.90;;;26.60;99.90;;;;;;4935328;29;20303;-69
2022/12/06 05:43:49;;;;;;;2.80;0.70;;;26.10;99.90;;;;;;4936469;29;20189;-69
2022/12/06 05:46:17;;;;;;;2.27;0.73;;;25.80;99.90;;;;;;4935757;29;20189;-69
2022/12/06 05:48:45;;;;;;;5.40;0.70;;;26.10;99.90;;;;;;4936501;29;20689;-69
2022/12/06 05:51:13;;;;;;;3.43;1.00;;;26.10;99.90;;;;;;4936181;29;20267;-70
2022/12/06 05:53:41;;;;;;;5.83;0.90;;;26.10;99.90;;;;;;4936459;29;20224;-68
2022/12/06 05:56:11;;;;;;;4.93;0.80;;;26.00;99.90;;;;;;4936129;29;20250;-69
2022/12/06 05:58:40;;;;;;;3.90;0.70;;;26.00;99.90;;;;;;4936506;29;20188;-70
2022/12/06 06:01:09;;;;;;;3.43;0.70;;;26.30;99.90;;;;;;4935673;29;20240;-69
2022/12/06 06:03:37;;;;;;;2.27;0.67;;;26.30;99.90;;;;;;4936011;29;20314;-69
2022/12/06 06:06:05;;;;;;;5.30;1.00;;;26.00;99.90;;;;;;4936182;29;20193;-68
2022/12/06 06:08:33;;;;;;;4.20;0.80;;;25.60;99.90;;;;;;4934706;29;20177;-69
2022/12/06 06:11:01;;;;;;;4.07;0.80;;;25.70;99.90;;;;;;4935825;29;20215;-68
2022/12/06 06:13:29;;;;;;;2.23;0.63;;;25.70;99.90;;;;;;4935473;29;20255;-69
2022/12/06 06:15:57;;;;;;;3.07;0.90;;;25.60;99.90;;;;;;4935491;29;20267;-69
2022/12/06 06:18:25;;;;;;;2.83;0.60;;;25.40;99.90;;;;;;4936391;29;20180;-70
2022/12/06 06:20:56;;;;;;;5.07;1.27;;;25.40;99.90;;;;;;4936471;29;20183;-70
2022/12/06 06:23:25;;;;;;;3.40;0.80;;;25.20;99.90;;;;;;4935306;29;20219;-70
2022/12/06 06:25:54;;;;;;;3.60;0.97;;;25.00;99.90;;;;;;4935685;29;20263;-69
2022/12/06 06:28:22;;;;;;;3.53;0.93;;;25.10;99.90;;;;;;4943950;29;20216;-70
2022/12/06 06:30:50;;;;;;;3.07;0.97;;;25.40;99.90;;;;;;4935987;29;20280;-68
2022/12/06 06:33:18;;;;;;;8.10;1.10;;;25.20;99.90;;;;;;4954882;29;20711;-68
2022/12/06 06:35:45;;;;;;;3.90;0.60;;;24.80;99.90;;;;;;4941720;29;20677;-69
2022/12/06 06:38:13;;;;;;;4.90;0.77;;;24.80;99.90;;;;;;4934945;29;20191;-69
2022/12/06 06:40:41;;;;;;;4.17;0.90;;;24.80;99.90;;;;;;4935390;29;20199;-68
2022/12/06 06:43:19;;;;;;;3.90;1.10;;;25.00;99.90;;;;;;4935043;29;20741;-67
2022/12/06 06:45:53;;;;;;;6.37;0.90;;;25.10;99.90;;;;;;4934322;29;20212;-69
2022/12/06 06:48:22;;;;;;;5.17;1.00;;;24.70;99.90;;;;;;4929819;29;20239;-68
2022/12/06 06:50:50;;;;;;;1.80;0.63;;;24.60;99.90;;;;;;4935148;29;20277;-68
2022/12/06 06:53:18;;;;;;;6.80;0.90;;;24.60;99.90;;;;;;4934842;29;20311;-68
2022/12/06 06:55:47;;;;;;;7.67;1.10;;;24.60;99.90;;;;;;4935435;29;20204;-67
2022/12/06 06:58:15;;;;;;;3.50;0.90;;;24.70;99.90;;;;;;4934853;29;20185;-68
2022/12/06 07:00:43;;;;;;;6.80;1.20;;;24.70;99.90;;;;;;4934721;29;20267;-68
2022/12/06 07:03:15;;;;;;;2.60;0.77;;;24.50;99.90;;;;;;4934418;29;20199;-66
2022/12/06 07:05:43;;;;;;;3.20;1.00;;;24.30;99.90;;;;;;4935195;29;20191;-68
2022/12/06 07:08:11;;;;;;;4.07;0.93;;;24.40;99.90;;;;;;4934304;29;20555;-68
2022/12/06 07:10:39;;;;;;;6.87;1.20;;;24.20;99.90;;;;;;4935023;29;20181;-69
2022/12/06 07:13:07;;;;;;;4.03;0.90;;;24.00;99.90;;;;;;4934327;29;20274;-69
2022/12/06 07:15:36;;;;;;;9.33;1.60;;;23.90;99.90;;;;;;4934479;29;20242;-69
2022/12/06 07:18:04;;;;;;;5.57;1.33;;;23.90;99.90;;;;;;4934953;29;20191;-69
2022/12/06 07:20:32;;;;;;;5.47;1.00;;;23.90;99.90;;;;;;4934756;29;20195;-68
2022/12/06 07:22:59;;;;;;;6.37;1.23;;;23.80;99.90;;;;;;4934390;29;20211;-67
2022/12/06 07:25:27;;;;;;;4.13;1.00;;;23.40;99.90;;;;;;4934444;29;20194;-68
2022/12/06 07:27:55;;;;;;;5.93;1.20;;;23.30;99.90;;;;;;4934568;29;20188;-68
2022/12/06 07:30:23;;;;;;;5.20;1.33;;;23.10;99.90;;;;;;4934483;29;20242;-68
2022/12/06 07:32:50;;;;;;;8.00;1.30;;;23.10;99.90;;;;;;4948273;29;20208;-68
2022/12/06 07:35:18;;;;;;;5.93;1.43;;;23.10;99.90;;;;;;4936461;29;20192;-68
2022/12/06 07:37:46;;;;;;;5.07;1.17;;;23.30;99.90;;;;;;4934300;29;20235;-68
2022/12/06 07:40:16;;;;;;;4.10;1.07;;;23.30;99.90;;;;;;4934586;29;20176;-69
2022/12/06 07:45:30;;;;;;;6.33;1.30;;;23.10;99.90;;;;;;4934041;29;20203;-69
2022/12/06 07:47:57;;;;;;;4.83;1.20;;;22.90;99.90;;;;;;4934116;29;20305;-69
2022/12/06 07:50:25;;;;;;;3.80;1.47;;;22.60;99.90;;;;;;4933539;29;20181;-68
2022/12/06 07:52:53;;;;;;;6.20;1.23;;;22.40;99.90;;;;;;4933716;29;20243;-69
2022/12/06 07:55:21;;;;;;;4.63;1.20;;;22.40;99.90;;;;;;4934160;29;20201;-67
2022/12/06 07:57:49;;;;;;;7.20;1.00;;;22.50;99.90;;;;;;4934491;29;20188;-69
2022/12/06 08:00:17;;;;;;;6.70;1.10;;;22.50;99.90;;;;;;4933541;29;20208;-69
2022/12/06 08:02:45;;;;;;;9.97;1.47;;;22.40;99.90;;;;;;4917132;29;20323;-68
2022/12/06 08:05:13;;;;;;;4.83;1.00;;;22.30;99.90;;;;;;4934319;29;20180;-68
2022/12/06 08:07:41;;;;;;;4.60;1.17;;;22.40;99.90;;;;;;4932610;29;20200;-68
2022/12/06 08:10:09;;;;;;;4.10;1.03;;;22.40;99.90;;;;;;4934380;29;20220;-68
2022/12/06 08:12:37;;;;;;;7.40;1.40;;;22.50;99.90;;;;;;4933429;29;20368;-68
2022/12/06 08:15:11;;;;;;;6.67;1.43;;;22.40;99.90;;;;;;4933042;29;20207;-68
2022/12/06 08:17:40;;;;;;;7.40;1.40;;;22.20;99.90;;;;;;4934400;29;20184;-67
2022/12/06 08:20:09;;;;;;;6.63;1.20;;;22.10;99.90;;;;;;4935202;29;20279;-68
2022/12/06 08:22:37;;;;;;;7.33;1.30;;;21.90;99.90;;;;;;4934769;29;20204;-68
2022/12/06 08:25:05;;;;;;;2.73;1.20;;;21.70;99.90;;;;;;4935613;29;20180;-68
2022/12/06 08:27:33;;;;;;;4.13;1.30;;;21.40;99.90;;;;;;4935032;29;20188;-67
2022/12/06 08:30:00;;;;;;;5.43;1.13;;;21.40;99.90;;;;;;4935266;29;20176;-68
2022/12/06 08:32:28;;;;;;;6.07;1.70;;;21.40;99.90;;;;;;4938140;29;20204;-68
2022/12/06 08:34:56;;;;;;;7.73;1.20;;;21.40;99.90;;;;;;4939229;29;20581;-68
2022/12/06 08:37:24;;;;;;;5.97;1.10;;;21.20;99.90;;;;;;4937704;29;20180;-69
2022/12/06 08:39:51;;;;;;;3.50;1.20;;;21.10;99.90;;;;;;4939389;29;20643;-69
2022/12/06 08:42:19;;;;;;;4.90;1.10;;;21.00;99.90;;;;;;4939140;29;20260;-68
2022/12/06 08:44:50;;;;;;;6.27;1.33;;;20.90;99.90;;;;;;4939179;29;20560;-68
2022/12/06 08:47:18;;;;;;;6.70;1.23;;;20.90;99.90;;;;;;4939270;29;20180;-68
2022/12/06 08:49:46;;;;;;;4.47;1.27;;;20.80;99.90;;;;;;4939095;29;20702;-68
2022/12/06 08:52:14;;;;;;;4.50;1.37;;;20.90;99.90;;;;;;4938153;29;20179;-72
2022/12/06 08:54:42;;;;;;;6.23;1.53;;;20.90;99.90;;;;;;4938859;29;20188;-69
2022/12/06 08:57:09;;;;;;;10.10;1.77;;;20.80;99.90;;;;;;4938675;29;20188;-68
2022/12/06 08:59:37;;;;;;;8.33;1.80;;;20.80;99.90;;;;;;4921832;29;20617;-69
2022/12/06 09:02:05;;;;;;;9.33;1.53;;;20.70;99.90;;;;;;4938740;29;20192;-68
2022/12/06 09:04:33;;;;;;;5.33;1.20;;;20.70;99.90;;;;;;4939017;29;20176;-69
2022/12/06 09:07:01;;;;;;;9.37;1.90;;;20.60;99.90;;;;;;4938273;29;20224;-68
2022/12/06 09:09:28;;;;;;;10.90;1.63;;;20.70;99.90;;;;;;4938456;29;20181;-69
2022/12/06 09:11:56;;;;;;;8.43;1.30;;;20.70;99.90;;;;;;4938319;29;20654;-68
2022/12/06 09:14:24;;;;;;;10.13;1.87;;;20.60;99.90;;;;;;4936700;29;20215;-68
2022/12/06 09:16:52;;;;;;;5.67;1.60;;;20.40;99.90;;;;;;4938686;29;20522;-70
2022/12/06 09:19:20;;;;;;;7.07;1.80;;;20.30;99.90;;;;;;4937788;29;20217;-69
2022/12/06 09:21:48;;;;;;;8.87;1.70;;;20.20;99.90;;;;;;4919621;29;20679;-67
2022/12/06 09:24:17;;;;;;;11.40;1.83;;;20.20;99.90;;;;;;4919527;29;20209;-66
2022/12/06 09:26:46;;;;;;;8.10;2.17;;;20.20;99.90;;;;;;4922247;29;20189;-68
2022/12/06 09:29:15;;;;;;;11.07;1.63;;;20.20;99.90;;;;;;4938359;29;20186;-67
2022/12/06 09:31:46;;;;;;;10.30;1.87;;;20.10;99.90;;;;;;4937864;29;20196;-67
2022/12/06 09:34:15;;;;;;;8.60;1.43;;;20.10;99.90;;;;;;4938030;29;20725;-67
2022/12/06 09:36:58;;;;;;;7.00;1.77;;;20.00;99.90;;;;;;4938075;29;20225;-68
2022/12/06 09:39:32;;;;;;;8.07;1.80;;;20.00;99.90;;;;;;4937807;29;20189;-69
2022/12/06 09:42:14;;;;;;;10.60;2.57;;;20.00;99.90;;;;;;4937948;28;20306;-66
2022/12/06 09:45:03;;;;;;;9.37;2.03;;;19.90;99.90;;;;;;4938677;29;20184;-67
2022/12/06 09:47:52;;;;;;;12.80;2.27;;;19.90;99.90;;;;;;4938524;29;20184;-68
2022/12/06 09:50:23;;;;;;;12.30;1.93;;;19.80;99.90;;;;;;4938163;29;20233;-68
2022/12/06 09:53:02;;;;;;;10.53;1.90;;;19.70;99.90;;;;;;4938389;29;20279;-68
2022/12/06 09:56:06;;;;;;;11.20;1.47;;;19.70;99.90;;;;;;4938014;29;20234;-68
2022/12/06 09:58:55;;;;;;;7.37;1.73;;;19.60;99.90;;;;;;4937611;29;20197;-68
2022/12/06 10:01:44;;;;;;;8.63;1.50;;;19.50;99.90;;;;;;4935220;29;20181;-68
2022/12/06 10:04:49;;;;;;;5.93;1.63;;;19.50;99.90;;;;;;4936378;29;20188;-68
2022/12/06 10:07:42;;;;;;;8.43;1.97;;;19.40;99.90;;;;;;4936731;29;20271;-68
2022/12/06 10:10:31;;;;;;;8.87;1.70;;;19.40;99.90;;;;;;4936049;29;20241;-68
2022/12/06 10:13:05;;;;;;;16.33;2.33;;;19.40;99.90;;;;;;4937535;29;20220;-69
2022/12/06 10:15:41;;;;;;;11.13;2.00;;;19.40;99.90;;;;;;4937936;29;20228;-67
2022/12/06 10:18:28;;;;;;;10.70;2.07;;;19.40;99.90;;;;;;4937758;29;20242;-68
2022/12/06 10:20:58;;;;;;;9.00;1.50;;;19.40;99.90;;;;;;4937738;29;20176;-68
2022/12/06 10:23:26;;;;;;;16.57;2.87;;;19.40;99.90;;;;;;4937390;29;20204;-68
2022/12/06 10:26:28;;;;;;;10.77;2.13;;;19.30;99.90;;;;;;4938011;29;20194;-67
2022/12/06 10:29:15;;;;;;;8.23;2.17;;;19.20;99.90;;;;;;4938552;29;20216;-68
2022/12/06 10:31:56;;;;;;;9.40;1.47;;;19.20;99.90;;;;;;4937668;29;20651;-68
2022/12/06 10:34:51;;;;;;;9.10;1.67;;;19.00;99.90;;;;;;4937194;29;20218;-69
2022/12/06 10:37:25;;;;;;;10.23;2.00;;;19.00;99.90;;;;;;4902836;29;20651;-69
2022/12/06 10:40:06;;;;;;;8.43;2.07;;;19.00;99.90;;;;;;4937300;29;20214;-69
2022/12/06 10:42:59;;;;;;;7.97;1.70;;;18.90;99.90;;;;;;4937213;29;20670;-68
2022/12/06 10:49:21;;;;;;;8.87;2.20;;;19.00;99.90;;;;;;4904376;29;20244;-67
2022/12/06 10:52:12;;;;;;;7.00;1.83;;;18.90;99.90;;;;;;4936892;29;20213;-68
2022/12/06 10:55:02;;;;;;;9.83;2.00;;;18.90;99.90;;;;;;4936771;29;20275;-67
2022/12/06 10:57:48;;;;;;;13.80;2.67;;;18.80;99.90;;;;;;4936914;29;20220;-66
2022/12/06 11:00:18;;;;;;;10.70;1.70;;;18.80;99.90;;;;;;4917866;29;20218;-67
2022/12/06 11:02:48;;;;;;;10.77;2.17;;;18.70;99.90;;;;;;4917726;29;20173;-68
2022/12/06 11:05:39;;;;;;;9.50;1.80;;;18.70;99.90;;;;;;4920061;29;20195;-67
2022/12/06 11:08:38;;;;;;;7.67;2.00;;;18.70;99.90;;;;;;4913925;29;20414;-68
2022/12/06 11:11:15;;;;;;;10.43;1.80;;;18.70;99.90;;;;;;4936298;29;20630;-69
2022/12/06 11:13:48;;;;;;;8.37;1.90;;;18.80;99.90;;;;;;4936476;29;20251;-68
2022/12/06 11:16:31;;;;;;;10.73;1.97;;;18.80;99.90;;;;;;4936532;29;20212;-69
2022/12/06 11:19:24;;;;;;;10.07;2.03;;;18.90;99.90;;;;;;4936686;29;20271;-68
2022/12/06 11:22:36;;;;;;;8.53;1.70;;;18.90;99.90;;;;;;4936425;29;20183;-68
2022/12/06 11:25:33;;;;;;;9.17;1.67;;;18.90;99.90;;;;;;4930133;29;20199;-68
2022/12/06 11:28:20;;;;;;;15.67;2.10;;;18.90;99.90;;;;;;4912797;29;20671;-68
2022/12/06 11:30:50;;;;;;;13.53;1.90;;;18.90;99.90;;;;;;4936440;29;20188;-69
2022/12/06 11:33:19;;;;;;;11.47;2.50;;;19.00;99.90;;;;;;4936219;29;20238;-69
2022/12/06 11:35:47;;;;;;;9.50;2.27;;;19.00;99.90;;;;;;4936127;29;20504;-69
2022/12/06 11:38:16;;;;;;;8.67;2.17;;;18.90;99.90;;;;;;4936208;29;20263;-68
2022/12/06 11:40:50;;;;;;;13.60;2.17;;;18.90;99.90;;;;;;4936254;29;20232;-69
2022/12/06 11:43:34;;;;;;;9.77;2.00;;;18.80;99.90;;;;;;4936097;29;20638;-68
2022/12/06 11:46:05;;;;;;;10.77;2.13;;;18.80;99.90;;;;;;4936436;29;20185;-68
2022/12/06 11:48:35;;;;;;;10.77;1.93;;;18.80;99.90;;;;;;4936064;29;20696;-69
2022/12/06 11:51:03;;;;;;;9.43;1.50;;;18.80;99.90;;;;;;4936147;29;20186;-68
2022/12/06 11:53:52;;;;;;;6.43;2.00;;;18.80;99.90;;;;;;4936192;29;20216;-69
2022/12/06 11:56:29;;;;;;;9.17;2.47;;;18.80;99.90;;;;;;4936192;29;20267;-68
2022/12/06 11:59:25;;;;;;;5.37;1.70;;;18.80;99.90;;;;;;4936072;29;20223;-69
2022/12/06 12:01:56;;;;;;;15.40;2.20;;;18.70;99.90;;;;;;4935946;29;20186;-68
2022/12/06 12:04:39;;;;;;;6.83;1.70;;;18.70;99.90;;;;;;4935986;29;20264;-69
2022/12/06 12:07:10;;;;;;;8.03;1.90;;;18.70;99.90;;;;;;4940081;29;20187;-70
2022/12/06 12:10:11;;;;;;;9.23;2.10;;;18.70;99.90;;;;;;4939471;29;20185;-68
2022/12/06 12:15:34;;;;;;;9.57;1.93;;;18.60;99.90;;;;;;4940549;29;20195;-71
2022/12/06 12:18:03;;;;;;;8.33;1.83;;;18.60;99.90;;;;;;4939778;29;20201;-68
2022/12/06 12:20:36;;;;;;;10.73;2.57;;;18.60;99.90;;;;;;4939595;29;20746;-69
2022/12/06 12:23:26;;;;;;;12.87;2.50;;;18.50;99.90;;;;;;4939995;29;20180;-68
2022/12/06 12:26:11;;;;;;;7.20;1.87;;;18.40;99.90;;;;;;4910658;29;20225;-69
2022/12/06 12:28:40;;;;;;;8.93;2.33;;;18.40;99.90;;;;;;4920647;29;20218;-69
2022/12/06 12:31:19;;;;;;;9.73;2.70;;;18.40;99.90;;;;;;4933096;29;20187;-69
2022/12/06 12:33:48;;;;;;;10.10;2.30;;;18.40;99.90;;;;;;4939768;29;20674;-69
2022/12/06 12:36:15;;;;;;;8.43;2.17;;;18.40;99.90;;;;;;4939504;29;20266;-69
2022/12/06 12:38:56;;;;;;;12.80;3.00;;;18.30;99.90;;;;;;4939370;29;20212;-68
2022/12/06 12:41:32;;;;;;;9.60;2.60;;;18.30;99.90;;;;;;4938921;29;20176;-69
2022/12/06 12:44:02;;;;;;;11.60;2.53;;;18.30;99.90;;;;;;4939716;29;20208;-69
2022/12/06 12:46:33;;;;;;;7.63;2.37;;;18.20;99.90;;;;;;4939589;29;20666;-69
2022/12/06 12:49:34;;;;;;;10.93;2.00;;;18.00;99.90;;;;;;4937626;29;20761;-68
2022/12/06 12:52:20;;;;;;;8.90;2.00;;;18.00;99.90;;;;;;4938180;29;20223;-67
2022/12/06 12:55:14;;;;;;;11.07;2.20;;;17.80;99.90;;;;;;4937834;29;20180;-68
2022/12/06 12:57:53;;;;;;;11.13;2.03;;;17.80;99.90;;;;;;4937977;29;20513;-69
2022/12/06 13:00:29;;;;;;;9.10;2.07;;;17.80;99.90;;;;;;4937561;29;20207;-67
2022/12/06 13:03:08;;;;;;;12.67;2.40;;;17.80;99.90;;;;;;4937943;29;20184;-67
2022/12/06 13:05:38;;;;;;;8.40;2.10;;;17.80;99.90;;;;;;4937881;29;20188;-68
2022/12/06 13:08:27;;;;;;;9.13;2.23;;;17.80;99.90;;;;;;4938205;29;20212;-68
2022/12/06 13:10:58;;;;;;;10.97;2.10;;;17.70;99.90;;;;;;4937517;29;20717;-68
2022/12/06 13:13:39;;;;;;;12.30;2.27;;;17.60;99.90;;;;;;4937758;29;20220;-68
2022/12/06 13:16:15;;;;;;;8.90;2.57;;;17.50;99.90;;;;;;4937220;29;20185;-67
2022/12/06 13:18:47;;;;;;;10.07;2.37;;;17.40;99.90;;;;;;4937507;29;20180;-67
2022/12/06 13:21:21;;;;;;;8.70;2.60;;;17.30;99.90;;;;;;4920234;29;20192;-69
2022/12/06 13:23:53;;;;;;;11.13;2.43;;;17.30;99.90;;;;;;4918388;29;20193;-68
2022/12/06 13:26:34;;;;;;;12.57;2.27;;;17.20;99.90;;;;;;4918697;29;20189;-67
2022/12/06 13:29:07;;;;;;;11.63;2.20;;;17.20;99.90;;;;;;4918737;29;20197;-67
2022/12/06 13:31:38;;;;;;;7.70;2.00;;;17.20;99.90;;;;;;4936042;29;20185;-70
2022/12/06 13:34:21;;;;;;;14.47;2.20;;;17.20;99.90;;;;;;4937436;29;20231;-68
2022/12/06 13:36:51;;;;;;;9.57;1.93;;;17.10;99.90;;;;;;4937397;29;20181;-68
2022/12/06 13:39:33;;;;;;;9.93;2.53;;;17.00;99.90;;;;;;4936992;29;20615;-67
2022/12/06 13:42:19;;;;;;;8.50;2.20;;;17.00;99.90;;;;;;4918217;29;20185;-68
2022/12/06 13:44:59;;;;;;;13.90;2.37;;;17.00;99.90;;;;;;4934743;29;20177;-67
2022/12/06 13:47:30;;;;;;;6.26;2.19;;;17.20;99.90;;;;;;4899070;29;4427994;-67
2022/12/06 13:50:22;;;;;;;6.10;1.80;;;17.30;99.90;;;;;;4937346;29;20193;-67
2022/12/06 13:52:49;;;;;;;9.73;2.27;;;17.30;99.90;;;;;;4936516;29;20220;-68